Time;durP1;ratioP1;P1;durP2;ratioP2;P2;SDS_P1;SDS_P2;PMS_P1;PMS_P2;Temp;Humidity;BMP_temperature;BMP_pressure;BME280_temperature;BME280_humidity;BME280_pressure;Samples;Min_cycle;Max_cycle;Signal;HPM_P1;HPM_P2
2022/05/11 00:00:18;;;;;;;12.57;6.28;;;19.30;99.90;;;;;;5077558;28;20094;-85
2022/05/11 00:02:43;;;;;;;14.25;6.70;;;19.20;99.90;;;;;;5098198;28;20019;-85
2022/05/11 00:05:16;;;;;;;9.35;5.93;;;19.20;99.90;;;;;;5113320;28;20034;-85
2022/05/11 00:07:41;;;;;;;11.30;6.32;;;19.10;99.90;;;;;;5080985;28;20035;-86
2022/05/11 00:10:11;;;;;;;14.15;6.53;;;19.10;99.90;;;;;;5076762;28;20479;-85
2022/05/11 00:12:59;;;;;;;12.60;7.07;;;19.00;99.90;;;;;;5108348;28;20069;-85
2022/05/11 00:15:26;;;;;;;11.18;6.88;;;18.90;99.90;;;;;;5106621;28;20112;-85
2022/05/11 00:17:52;;;;;;;11.18;6.25;;;18.90;99.90;;;;;;5113913;28;20026;-85
2022/05/11 00:20:25;;;;;;;15.55;6.13;;;18.90;99.90;;;;;;5119332;27;20031;-85
2022/05/11 00:22:56;;;;;;;15.70;6.57;;;18.80;99.90;;;;;;5102635;28;20024;-85
2022/05/11 00:25:26;;;;;;;16.75;6.35;;;18.80;99.90;;;;;;5097363;28;20063;-85
2022/05/11 00:28:07;;;;;;;7.07;5.47;;;18.80;99.90;;;;;;5090815;28;21742;-85
2022/05/11 00:30:32;;;;;;;6.32;4.25;;;18.70;99.90;;;;;;5105922;28;20034;-85
2022/05/11 00:33:02;;;;;;;7.15;5.35;;;18.60;99.90;;;;;;5112305;28;20379;-85
2022/05/11 00:35:30;;;;;;;8.25;5.18;;;18.60;99.90;;;;;;5113328;28;20483;-85
2022/05/11 00:37:56;;;;;;;6.95;4.68;;;18.60;99.90;;;;;;5093378;28;20034;-85
2022/05/11 00:40:29;;;;;;;13.40;4.90;;;18.50;99.90;;;;;;5118945;27;20027;-85
2022/05/11 00:42:54;;;;;;;10.80;6.25;;;18.50;99.90;;;;;;5113864;28;20034;-86
2022/05/11 00:45:20;;;;;;;7.47;5.60;;;18.40;99.90;;;;;;5106371;28;20020;-86
2022/05/11 00:51:27;;;;;;;9.70;5.07;;;18.20;99.90;;;;;;5106647;27;20051;-85
2022/05/11 00:53:54;;;;;;;7.00;5.40;;;18.10;99.90;;;;;;5090574;28;20020;-85
2022/05/11 00:56:21;;;;;;;9.10;5.95;;;18.10;99.90;;;;;;5075036;28;20055;-85
2022/05/11 00:59:18;;;;;;;9.13;6.65;;;18.00;99.90;;;;;;5094202;27;20023;-85
2022/05/11 01:01:44;;;;;;;8.20;6.00;;;18.00;99.90;;;;;;5115696;27;20019;-85
2022/05/11 01:04:13;;;;;;;14.00;6.38;;;17.90;99.90;;;;;;5094235;28;20934;-85
2022/05/11 01:06:41;;;;;;;12.70;7.13;;;17.80;99.90;;;;;;5097523;28;20516;-85
2022/05/11 01:09:10;;;;;;;8.02;5.65;;;17.80;99.90;;;;;;5113021;28;20024;-85
2022/05/11 01:11:45;;;;;;;7.93;5.97;;;17.70;99.90;;;;;;5111265;28;20028;-85
2022/05/11 01:14:34;;;;;;;9.07;6.22;;;17.70;99.90;;;;;;5093425;28;20016;-85
2022/05/11 01:17:00;;;;;;;11.68;6.93;;;17.70;99.90;;;;;;5100718;27;20011;-85
2022/05/11 01:19:30;;;;;;;9.38;5.85;;;17.70;99.90;;;;;;5112363;28;20038;-85
2022/05/11 01:22:26;;;;;;;9.60;5.88;;;17.70;99.90;;;;;;5124818;27;20031;-85
2022/05/11 01:24:52;;;;;;;10.75;6.93;;;17.70;99.90;;;;;;5112212;28;20031;-85
2022/05/11 01:27:41;;;;;;;13.27;6.80;;;17.60;99.90;;;;;;5108879;27;20388;-85
2022/05/11 01:30:33;;;;;;;13.38;6.82;;;17.60;99.90;;;;;;5106480;28;20028;-85
2022/05/11 01:32:59;;;;;;;7.38;6.05;;;17.50;99.90;;;;;;5101898;28;20031;-85
2022/05/11 01:39:02;;;;;;;7.72;5.90;;;17.50;99.90;;;;;;5102819;28;20040;-85
2022/05/11 01:41:34;;;;;;;9.68;7.43;;;17.50;99.90;;;;;;5093942;28;20070;-85
2022/05/11 01:44:16;;;;;;;9.63;5.93;;;17.40;99.90;;;;;;5092543;28;20031;-85
2022/05/11 01:46:46;;;;;;;10.65;6.80;;;17.30;99.90;;;;;;5095642;28;20023;-85
2022/05/11 01:49:12;;;;;;;6.10;5.47;;;17.40;99.90;;;;;;5092566;28;20024;-85
2022/05/11 01:51:37;;;;;;;7.70;5.45;;;17.40;99.90;;;;;;5089137;28;20040;-85
2022/05/11 01:54:03;;;;;;;6.55;5.75;;;17.40;99.90;;;;;;5074632;28;20055;-85
2022/05/11 01:56:40;;;;;;;10.50;6.25;;;17.40;99.90;;;;;;5106650;28;20104;-85
2022/05/11 01:59:06;;;;;;;11.48;6.57;;;17.40;99.90;;;;;;5099918;28;20043;-84
2022/05/11 02:01:33;;;;;;;12.30;7.20;;;17.40;99.90;;;;;;5078616;28;20475;-85
2022/05/11 02:10:10;;;;;;;13.52;6.97;;;17.30;99.90;;;;;;5111371;28;20069;-85
2022/05/11 02:12:36;;;;;;;11.73;6.80;;;17.20;99.90;;;;;;5108828;28;20024;-85
2022/05/11 02:15:31;;;;;;;7.50;6.15;;;17.20;99.90;;;;;;5092163;28;20031;-85
2022/05/11 02:17:57;;;;;;;8.32;6.82;;;17.20;99.90;;;;;;5097574;28;20463;-85
2022/05/11 02:20:35;;;;;;;10.00;7.28;;;17.10;99.90;;;;;;5111916;28;20031;-85
2022/05/11 02:23:01;;;;;;;10.25;7.60;;;17.10;99.90;;;;;;5106751;28;20028;-85
2022/05/11 02:25:26;;;;;;;12.60;8.18;;;17.10;99.90;;;;;;5111167;28;20028;-85
2022/05/11 02:27:58;;;;;;;13.63;8.27;;;17.10;99.90;;;;;;5112607;28;20446;-85
2022/05/11 02:30:26;;;;;;;11.20;7.80;;;17.00;99.90;;;;;;5092026;28;20028;-85
2022/05/11 02:32:53;;;;;;;14.68;7.93;;;17.00;99.90;;;;;;5095736;28;20019;-85
2022/05/11 02:35:25;;;;;;;8.07;7.00;;;17.10;99.90;;;;;;5087478;27;20056;-85
2022/05/11 02:37:55;;;;;;;6.90;6.10;;;17.00;99.90;;;;;;5099902;28;20567;-85
2022/05/11 02:40:23;;;;;;;8.80;6.57;;;17.00;99.90;;;;;;5120548;27;20024;-85
2022/05/11 02:42:52;;;;;;;9.35;5.95;;;17.00;99.90;;;;;;5115305;28;20060;-85
2022/05/11 02:45:18;;;;;;;9.40;6.18;;;17.00;99.90;;;;;;5094528;28;20055;-85
2022/05/11 02:47:53;;;;;;;8.35;6.03;;;17.10;99.90;;;;;;5107972;28;20036;-85
2022/05/11 02:50:23;;;;;;;6.88;6.07;;;17.10;99.90;;;;;;5114973;27;20528;-85
2022/05/11 02:52:49;;;;;;;10.30;6.97;;;17.00;99.90;;;;;;5115244;28;20114;-85
2022/05/11 02:55:43;;;;;;;9.02;7.13;;;17.10;99.90;;;;;;5118335;27;20070;-84
2022/05/11 02:58:09;;;;;;;9.60;6.68;;;17.10;99.90;;;;;;5097793;28;20023;-85
2022/05/11 03:00:44;;;;;;;14.50;8.52;;;17.00;99.90;;;;;;5101820;27;20024;-85
2022/05/11 03:03:11;;;;;;;13.27;8.60;;;17.00;99.90;;;;;;5095485;28;20027;-84
2022/05/11 03:05:38;;;;;;;8.65;7.45;;;17.10;99.90;;;;;;5117510;27;20062;-84
2022/05/11 03:08:18;;;;;;;8.05;6.72;;;17.00;99.90;;;;;;5097175;28;20481;-84
2022/05/11 03:10:44;;;;;;;8.57;6.30;;;17.00;99.90;;;;;;5098622;28;20024;-86
2022/05/11 03:13:10;;;;;;;6.95;6.25;;;17.00;99.90;;;;;;5114893;28;20041;-84
2022/05/11 03:15:47;;;;;;;8.77;7.05;;;17.10;99.90;;;;;;5113966;27;20028;-85
2022/05/11 03:18:13;;;;;;;9.13;6.78;;;17.00;99.90;;;;;;5115127;28;20011;-85
2022/05/11 03:20:46;;;;;;;15.10;7.57;;;17.10;99.90;;;;;;5115446;28;20472;-85
2022/05/11 03:23:11;;;;;;;8.98;7.30;;;17.10;99.90;;;;;;5095766;28;20055;-84
2022/05/11 03:25:37;;;;;;;8.73;6.72;;;17.10;99.90;;;;;;5110476;28;20066;-84
2022/05/11 03:28:04;;;;;;;8.15;7.05;;;17.00;99.90;;;;;;5097180;28;20035;-85
2022/05/11 03:30:30;;;;;;;7.90;7.00;;;17.10;99.90;;;;;;5095807;28;20067;-85
2022/05/11 03:35:42;;;;;;;6.93;6.27;;;17.00;99.90;;;;;;5109721;28;20104;-85
2022/05/11 03:38:15;;;;;;;8.63;6.70;;;17.00;99.90;;;;;;5107565;28;20020;-85
2022/05/11 03:40:40;;;;;;;8.10;6.50;;;17.00;99.90;;;;;;5101967;27;20035;-85
2022/05/11 03:43:06;;;;;;;9.20;7.47;;;17.00;99.90;;;;;;5093477;28;20406;-84
2022/05/11 03:45:33;;;;;;;11.70;8.73;;;17.00;99.90;;;;;;5112684;27;20028;-84
2022/05/11 03:47:59;;;;;;;15.65;8.23;;;17.00;99.90;;;;;;5093681;28;20375;-85
2022/05/11 03:50:25;;;;;;;15.85;9.05;;;16.90;99.90;;;;;;5099428;28;20104;-85
2022/05/11 03:52:52;;;;;;;11.65;7.90;;;16.90;99.90;;;;;;5112060;28;20079;-85
2022/05/11 03:55:21;;;;;;;8.32;6.93;;;16.80;99.90;;;;;;5095425;28;20031;-84
2022/05/11 03:57:46;;;;;;;11.35;7.45;;;16.80;99.90;;;;;;5099485;28;20024;-85
2022/05/11 04:00:23;;;;;;;11.50;7.05;;;16.80;99.90;;;;;;5112878;28;20102;-84
2022/05/11 04:02:53;;;;;;;11.82;8.20;;;16.80;99.90;;;;;;5103739;28;20028;-85
2022/05/11 04:05:20;;;;;;;9.40;6.85;;;16.70;99.90;;;;;;5113843;28;20471;-85
2022/05/11 04:07:53;;;;;;;12.32;8.15;;;16.80;99.90;;;;;;5111776;28;20027;-85
2022/05/11 04:10:19;;;;;;;10.35;7.22;;;16.70;99.90;;;;;;5113944;28;20081;-84
2022/05/11 04:13:00;;;;;;;8.65;7.40;;;16.70;99.90;;;;;;5102748;28;20019;-85
2022/05/11 04:15:26;;;;;;;12.88;7.60;;;16.70;99.90;;;;;;5103328;28;20055;-85
2022/05/11 04:18:00;;;;;;;12.27;7.45;;;16.70;99.90;;;;;;5075901;28;20055;-85
2022/05/11 04:20:25;;;;;;;11.45;7.35;;;16.70;99.90;;;;;;5075976;28;20024;-85
2022/05/11 04:22:57;;;;;;;8.40;7.38;;;16.80;99.90;;;;;;5093667;28;20089;-85
2022/05/11 04:25:23;;;;;;;9.02;7.60;;;16.80;99.90;;;;;;5093908;28;20032;-85
2022/05/11 04:27:49;;;;;;;8.02;7.05;;;16.80;99.90;;;;;;5097364;27;20024;-85
2022/05/11 04:30:16;;;;;;;12.35;7.90;;;16.80;99.90;;;;;;5113244;28;20027;-85
2022/05/11 04:32:42;;;;;;;11.48;8.63;;;16.80;99.90;;;;;;5113301;28;20019;-85
2022/05/11 04:35:11;;;;;;;10.10;7.35;;;16.90;99.90;;;;;;5114252;28;20709;-85
2022/05/11 04:37:36;;;;;;;14.48;8.90;;;16.90;99.90;;;;;;5112212;28;20019;-85
2022/05/11 04:40:04;;;;;;;15.52;8.77;;;16.90;99.90;;;;;;5095467;28;20028;-85
2022/05/11 04:43:07;;;;;;;15.77;8.77;;;16.90;99.90;;;;;;5107296;28;20468;-85
2022/05/11 04:45:36;;;;;;;11.23;8.30;;;16.80;99.90;;;;;;5108427;28;20483;-84
2022/05/11 04:48:03;;;;;;;9.18;8.00;;;16.80;99.90;;;;;;5108939;28;20024;-84
2022/05/11 04:50:29;;;;;;;11.93;8.27;;;16.80;99.90;;;;;;5113376;28;20086;-84
2022/05/11 04:52:54;;;;;;;8.50;7.68;;;16.80;99.90;;;;;;5107168;28;20377;-83
2022/05/11 04:55:22;;;;;;;13.57;8.63;;;16.90;99.90;;;;;;5094107;28;20124;-84
2022/05/11 04:57:49;;;;;;;11.82;8.38;;;16.90;99.90;;;;;;5109872;28;20027;-84
2022/05/11 05:00:21;;;;;;;18.48;9.75;;;16.90;99.90;;;;;;5112660;28;20019;-85
2022/05/11 05:02:47;;;;;;;14.90;9.18;;;17.00;99.90;;;;;;5106776;28;20024;-85
2022/05/11 05:05:15;;;;;;;15.27;10.23;;;17.00;99.90;;;;;;5094910;28;20026;-85
2022/05/11 05:07:41;;;;;;;15.70;8.80;;;17.10;99.90;;;;;;5101737;28;20481;-84
2022/05/11 05:10:14;;;;;;;9.27;8.07;;;17.10;99.90;;;;;;5093037;28;20016;-84
2022/05/11 05:12:42;;;;;;;21.65;9.60;;;17.10;99.90;;;;;;5105887;28;20023;-84
2022/05/11 05:15:12;;;;;;;9.55;6.63;;;17.20;99.90;;;;;;5092015;28;20020;-85
2022/05/11 05:17:37;;;;;;;11.98;6.43;;;17.30;99.90;;;;;;5109158;28;20529;-84
2022/05/11 05:20:09;;;;;;;12.07;6.47;;;17.30;99.90;;;;;;5092103;28;20059;-85
2022/05/11 05:22:35;;;;;;;11.35;5.93;;;17.40;99.90;;;;;;5111809;28;20019;-84
2022/05/11 05:25:07;;;;;;;12.00;5.85;;;17.50;99.90;;;;;;5110878;28;20057;-84
2022/05/11 05:27:32;;;;;;;13.32;5.93;;;17.50;99.90;;;;;;5111072;28;20024;-84
2022/05/11 05:32:46;;;;;;;7.72;5.88;;;17.60;99.90;;;;;;5097759;28;21813;-85
2022/05/11 05:35:16;;;;;;;10.10;5.28;;;17.60;99.90;;;;;;5092817;28;20028;-84
2022/05/11 05:37:42;;;;;;;12.23;5.20;;;17.70;99.90;;;;;;5091283;28;20023;-85
2022/05/11 05:40:12;;;;;;;11.05;4.80;;;17.70;99.90;;;;;;5105467;28;20024;-84
2022/05/11 05:42:38;;;;;;;10.65;5.13;;;17.80;99.90;;;;;;5109544;28;20039;-84
2022/05/11 05:45:06;;;;;;;6.07;4.70;;;17.80;99.90;;;;;;5104676;28;20494;-84
2022/05/11 05:47:32;;;;;;;13.88;5.25;;;17.90;99.90;;;;;;5111959;28;20031;-84
2022/05/11 05:49:57;;;;;;;7.25;5.03;;;18.00;99.90;;;;;;5104033;28;20430;-85
2022/05/11 05:52:25;;;;;;;4.88;4.20;;;18.10;99.90;;;;;;5111769;28;20032;-85
2022/05/11 05:54:54;;;;;;;11.73;4.43;;;18.10;99.90;;;;;;5093122;28;20027;-84
2022/05/11 05:57:20;;;;;;;10.07;4.53;;;18.20;99.90;;;;;;5102614;28;20089;-85
2022/05/11 05:59:48;;;;;;;9.75;5.13;;;18.30;99.90;;;;;;5084130;28;20019;-85
2022/05/11 06:02:14;;;;;;;6.82;4.93;;;18.30;99.90;;;;;;5109359;28;20039;-84
2022/05/11 06:04:49;;;;;;;6.38;4.40;;;18.40;99.90;;;;;;5103359;28;20461;-85
2022/05/11 06:07:16;;;;;;;7.72;5.00;;;18.50;99.90;;;;;;5080841;28;20027;-84
2022/05/11 06:09:43;;;;;;;12.30;4.90;;;18.60;99.90;;;;;;5111226;28;20441;-85
2022/05/11 06:12:14;;;;;;;8.13;4.28;;;18.70;99.90;;;;;;5101318;28;20043;-86
2022/05/11 06:14:42;;;;;;;9.43;4.55;;;18.80;99.90;;;;;;5108171;28;20024;-85
2022/05/11 06:17:17;;;;;;;9.48;4.50;;;18.90;99.90;;;;;;5104293;28;20023;-84
2022/05/11 06:19:44;;;;;;;7.03;4.23;;;18.90;99.90;;;;;;5108327;28;20098;-85
2022/05/11 06:22:10;;;;;;;6.72;4.00;;;19.00;99.90;;;;;;5090113;28;20035;-85
2022/05/11 06:24:45;;;;;;;6.43;3.88;;;19.10;99.90;;;;;;5111913;28;20047;-85
2022/05/11 06:27:16;;;;;;;6.45;4.32;;;19.10;99.90;;;;;;5097511;28;20051;-85
2022/05/11 06:29:49;;;;;;;11.27;4.53;;;19.10;99.90;;;;;;5106133;28;20444;-84
2022/05/11 06:32:14;;;;;;;17.35;4.43;;;19.20;99.90;;;;;;5094501;28;20031;-85
2022/05/11 06:34:54;;;;;;;8.00;4.75;;;19.20;99.90;;;;;;5116364;28;20019;-86
2022/05/11 06:37:24;;;;;;;10.00;3.92;;;19.30;99.90;;;;;;5116000;28;20027;-85
2022/05/11 06:39:52;;;;;;;8.43;4.45;;;19.30;99.90;;;;;;5114868;28;20110;-85
2022/05/11 06:42:20;;;;;;;10.70;3.75;;;19.40;99.90;;;;;;5116180;28;20429;-85
2022/05/11 06:44:52;;;;;;;10.05;4.50;;;19.40;99.90;;;;;;5116257;28;20027;-85
2022/05/11 06:47:18;;;;;;;13.10;4.10;;;19.50;99.90;;;;;;5114881;28;20027;-86
2022/05/11 06:50:02;;;;;;;7.80;4.80;;;19.60;99.90;;;;;;5116282;28;20053;-85
2022/05/11 06:52:47;;;;;;;5.45;4.25;;;19.50;99.90;;;;;;5115768;27;20031;-86
2022/05/11 07:00:42;;;;;;;8.10;4.50;;;19.60;99.90;;;;;;5136860;27;20049;-85
2022/05/11 07:03:10;;;;;;;7.40;4.43;;;19.60;99.90;;;;;;5117960;27;20020;-86
2022/05/11 07:05:36;;;;;;;5.43;4.30;;;19.70;99.90;;;;;;5117530;27;20087;-85
2022/05/11 07:08:04;;;;;;;8.05;3.85;;;19.70;99.90;;;;;;5136424;27;20102;-86
2022/05/11 07:10:31;;;;;;;9.90;4.65;;;19.70;99.90;;;;;;5136275;27;20157;-85
2022/05/11 07:12:57;;;;;;;8.93;3.88;;;19.70;99.90;;;;;;5135782;27;20049;-85
2022/05/11 07:15:23;;;;;;;6.03;4.10;;;19.70;99.90;;;;;;5136203;27;20020;-85
2022/05/11 07:17:56;;;;;;;6.60;4.45;;;19.70;99.90;;;;;;5136286;27;20043;-85
2022/05/11 07:20:26;;;;;;;7.22;3.97;;;19.70;99.90;;;;;;5136081;27;20098;-85
2022/05/11 07:22:53;;;;;;;6.57;3.85;;;19.80;99.90;;;;;;5134924;27;20389;-86
2022/05/11 07:25:21;;;;;;;6.53;3.95;;;19.70;99.90;;;;;;5127543;27;20390;-85
2022/05/11 07:28:23;;;;;;;6.63;4.68;;;19.80;99.90;;;;;;5117538;27;20039;-86
2022/05/11 07:30:51;;;;;;;10.07;3.95;;;19.80;99.90;;;;;;5135862;27;20030;-85
2022/05/11 07:33:25;;;;;;;7.22;4.18;;;19.90;99.90;;;;;;5135698;27;20084;-85
2022/05/11 07:35:50;;;;;;;6.40;4.05;;;19.90;99.90;;;;;;5117146;27;20038;-85
2022/05/11 07:38:18;;;;;;;14.75;4.60;;;19.90;99.90;;;;;;5135688;27;20027;-86
2022/05/11 07:40:44;;;;;;;5.63;3.63;;;19.90;99.90;;;;;;5135773;27;20031;-86
2022/05/11 07:43:15;;;;;;;8.88;4.28;;;19.90;99.90;;;;;;5135477;27;20053;-86
2022/05/11 07:45:42;;;;;;;9.90;4.03;;;19.90;99.90;;;;;;5135658;27;20111;-86
2022/05/11 07:48:10;;;;;;;6.90;4.03;;;19.80;99.90;;;;;;5135421;27;20019;-86
2022/05/11 07:50:36;;;;;;;8.02;4.75;;;19.80;99.90;;;;;;5135090;27;20058;-86
2022/05/11 07:53:02;;;;;;;6.00;3.83;;;19.90;99.90;;;;;;5122726;27;20094;-86
2022/05/11 08:01:24;;;;;;;7.85;4.07;;;20.00;99.90;;;;;;5094593;28;20062;-86
2022/05/11 08:03:49;;;;;;;4.05;3.50;;;20.30;99.90;;;;;;5094309;28;20020;-87
2022/05/11 08:06:31;;;;;;;7.10;4.22;;;20.50;99.90;;;;;;5075746;28;20024;-86
2022/05/11 08:08:57;;;;;;;13.82;3.55;;;20.80;99.90;;;;;;5094289;28;20494;-86
2022/05/11 08:11:23;;;;;;;5.10;3.35;;;21.10;99.90;;;;;;5093965;28;20024;-85
2022/05/11 08:13:49;;;;;;;16.40;4.55;;;21.20;99.90;;;;;;5084019;28;20024;-86
2022/05/11 08:16:26;;;;;;;5.35;3.20;;;21.40;99.90;;;;;;5076948;28;20025;-86
2022/05/11 08:18:52;;;;;;;9.88;3.90;;;21.50;99.90;;;;;;5073586;28;20043;-86
2022/05/11 08:21:19;;;;;;;5.90;3.30;;;21.70;99.90;;;;;;5073279;28;20028;-85
2022/05/11 08:23:45;;;;;;;13.38;4.35;;;21.70;99.90;;;;;;5073613;28;20020;-85
2022/05/11 08:26:23;;;;;;;6.43;3.28;;;21.80;99.90;;;;;;5073699;28;20025;-86
2022/05/11 08:28:49;;;;;;;5.35;3.53;;;22.00;99.90;;;;;;5073569;28;20035;-86
2022/05/11 08:34:12;;;;;;;5.75;3.67;;;22.10;99.90;;;;;;5073345;28;20031;-85
2022/05/11 08:36:52;;;;;;;9.15;3.72;;;22.20;99.90;;;;;;5055261;28;20020;-86
2022/05/11 08:39:18;;;;;;;9.70;3.95;;;22.30;99.90;;;;;;5073386;28;20022;-86
2022/05/11 08:42:12;;;;;;;9.85;4.30;;;22.30;99.90;;;;;;5073291;28;20028;-85
2022/05/11 08:44:43;;;;;;;8.73;3.50;;;22.40;99.90;;;;;;5073221;28;20024;-86
2022/05/11 08:47:36;;;;;;;11.55;4.40;;;22.40;99.90;;;;;;5073077;28;20029;-88
2022/05/11 08:50:16;;;;;;;4.45;3.28;;;22.50;99.90;;;;;;5073151;28;20046;-87
2022/05/11 08:53:24;;;;;;;20.08;4.15;;;22.50;99.90;;;;;;5075482;28;20020;-85
2022/05/11 08:55:51;;;;;;;7.50;4.05;;;22.70;99.90;;;;;;5093464;28;20054;-87
2022/05/11 08:58:35;;;;;;;12.73;4.28;;;22.80;99.90;;;;;;5091907;28;20357;-86
2022/05/11 09:01:01;;;;;;;7.15;3.40;;;22.90;99.90;;;;;;5093289;28;20467;-87
2022/05/11 09:03:32;;;;;;;13.57;4.30;;;22.90;99.90;;;;;;5093273;28;20107;-83
2022/05/11 09:05:59;;;;;;;9.25;3.10;;;23.10;99.90;;;;;;5092825;28;20028;-86
2022/05/11 09:08:28;;;;;;;11.27;4.15;;;23.10;99.90;;;;;;5093097;28;20426;-85
2022/05/11 09:10:54;;;;;;;8.60;3.75;;;23.00;99.90;;;;;;5092984;28;20024;-87
2022/05/11 09:13:44;;;;;;;14.75;3.60;;;23.10;99.90;;;;;;5093027;28;20090;-87
2022/05/11 09:16:27;;;;;;;8.43;3.22;;;23.10;99.90;;;;;;5093054;28;20421;-85
2022/05/11 09:18:54;;;;;;;6.18;3.47;;;23.10;99.90;;;;;;5092859;28;20036;-84
2022/05/11 09:21:25;;;;;;;11.00;3.63;;;23.20;99.90;;;;;;5092657;28;20020;-87
2022/05/11 09:24:18;;;;;;;10.27;3.55;;;23.30;99.90;;;;;;5092903;28;20042;-86
2022/05/11 09:26:46;;;;;;;7.93;3.65;;;23.40;99.90;;;;;;5091725;28;20028;-86
2022/05/11 09:29:43;;;;;;;12.07;3.47;;;23.50;99.90;;;;;;5092789;28;20027;-86
2022/05/11 09:32:21;;;;;;;9.50;3.08;;;23.60;99.90;;;;;;5092697;28;20028;-85
2022/05/11 09:34:48;;;;;;;6.13;3.40;;;23.80;99.90;;;;;;5092362;28;20024;-85
2022/05/11 09:37:47;;;;;;;8.02;3.42;;;23.90;99.90;;;;;;5092307;28;20038;-86
2022/05/11 09:40:20;;;;;;;9.20;3.50;;;23.90;99.90;;;;;;5092277;28;20027;-85
2022/05/11 09:42:51;;;;;;;8.90;3.00;;;23.90;99.90;;;;;;5092970;28;20472;-86
2022/05/11 09:45:45;;;;;;;6.65;3.60;;;24.00;99.90;;;;;;5092252;28;20067;-87
2022/05/11 09:48:17;;;;;;;5.72;3.70;;;24.10;99.90;;;;;;5092677;28;20026;-87
2022/05/11 09:50:56;;;;;;;3.63;3.15;;;24.20;98.50;;;;;;5092489;28;20080;-86
2022/05/11 09:53:27;;;;;;;11.30;3.47;;;24.20;99.90;;;;;;5092385;28;20492;-86
2022/05/11 09:55:53;;;;;;;12.27;3.45;;;24.40;97.70;;;;;;5091289;28;20027;-85
2022/05/11 09:58:33;;;;;;;12.70;3.80;;;24.40;94.10;;;;;;5092616;28;20016;-85
2022/05/11 10:01:22;;;;;;;14.90;3.28;;;24.30;92.50;;;;;;5092549;28;20145;-85
2022/05/11 10:03:58;;;;;;;9.75;3.53;;;24.30;92.70;;;;;;5092178;28;20031;-86
2022/05/11 10:06:58;;;;;;;7.90;2.90;;;24.40;92.40;;;;;;5092202;28;20024;-85
2022/05/11 10:09:32;;;;;;;7.28;3.20;;;24.40;88.10;;;;;;5091075;28;20028;-86
2022/05/11 10:12:08;;;;;;;18.73;3.23;;;24.30;85.70;;;;;;5092325;28;20082;-84
2022/05/11 10:23:20;;;;;;;26.73;3.85;;;24.50;94.00;;;;;;5092386;28;20055;-86
2022/05/11 10:25:52;;;;;;;5.32;3.10;;;24.50;83.20;;;;;;5074241;28;20369;-85
2022/05/11 10:29:00;;;;;;;8.43;3.30;;;24.40;84.10;;;;;;5092260;28;20020;-87
2022/05/11 10:32:06;;;;;;;9.45;3.38;;;24.40;90.10;;;;;;5092206;28;20024;-86
2022/05/11 10:34:50;;;;;;;;;;;24.30;90.30;;;;;;5091137;28;20040;-85
2022/05/11 10:37:43;;;;;;;6.63;3.55;;;24.20;92.50;;;;;;5074144;28;19908;-85
2022/05/11 10:40:56;;;;;;;14.10;3.85;;;24.20;91.00;;;;;;5092273;28;20027;-84
2022/05/11 10:43:47;;;;;;;8.93;3.38;;;24.40;89.20;;;;;;5091849;28;20032;-84
2022/05/11 10:46:43;;;;;;;8.30;3.20;;;24.40;90.40;;;;;;5091691;28;20128;-85
2022/05/11 10:49:26;;;;;;;12.60;3.30;;;24.40;86.50;;;;;;5090936;28;20388;-87
2022/05/11 10:52:08;;;;;;;11.20;3.33;;;24.50;71.30;;;;;;5091607;28;20035;-85
2022/05/11 10:54:58;;;;;;;17.27;3.33;;;24.40;76.40;;;;;;5090402;28;20047;-86
2022/05/11 10:57:30;;;;;;;17.23;3.17;;;24.40;68.80;;;;;;5094361;28;20021;-87
2022/05/11 11:00:18;;;;;;;11.80;3.28;;;24.40;73.10;;;;;;5094285;28;20035;-86
2022/05/11 11:03:06;;;;;;;9.27;3.00;;;24.50;72.30;;;;;;5095380;28;20074;-87
2022/05/11 11:12:43;;;;;;;11.68;3.45;;;24.90;64.60;;;;;;5095861;28;20035;-91
2022/05/11 11:15:14;;;;;;;9.90;2.80;;;24.80;68.50;;;;;;5094670;28;20540;-90
2022/05/11 11:17:47;;;;;;;11.48;3.53;;;24.80;70.50;;;;;;5094476;28;20051;-92
2022/05/11 11:20:17;;;;;;;5.43;3.40;;;24.70;72.70;;;;;;5094164;28;20032;-91
2022/05/11 11:23:28;;;;;;;7.43;3.53;;;24.70;74.30;;;;;;5094455;28;20450;-90
2022/05/11 11:26:12;;;;;;;7.10;2.88;;;24.80;76.20;;;;;;5094285;28;20491;-90
2022/05/11 11:28:40;;;;;;;9.38;2.92;;;25.10;71.10;;;;;;5094109;28;20422;-91
2022/05/11 11:31:20;;;;;;;7.60;3.13;;;25.30;76.60;;;;;;5094136;28;20035;-92
2022/05/11 11:34:04;;;;;;;7.97;3.28;;;25.60;62.10;;;;;;5094302;28;20488;-89
2022/05/11 11:36:41;;;;;;;7.18;2.88;;;25.90;55.70;;;;;;5093906;28;20107;-91
2022/05/11 11:39:09;;;;;;;6.85;3.03;;;25.90;56.10;;;;;;5095423;28;20103;-94
2022/05/11 11:44:46;;;;;;;9.25;2.90;;;25.70;57.50;;;;;;5095659;28;20360;-91
2022/05/11 11:47:40;;;;;;;6.88;3.20;;;25.80;58.90;;;;;;5103458;28;20028;-91
2022/05/11 11:50:32;;;;;;;6.38;3.00;;;25.80;59.10;;;;;;5100860;27;20063;-92
2022/05/11 11:53:23;;;;;;;13.18;3.05;;;25.90;66.70;;;;;;5097598;28;20040;-93
2022/05/11 11:55:50;;;;;;;8.48;2.60;;;26.10;59.30;;;;;;5108199;27;20031;-92
2022/05/11 11:58:37;;;;;;;7.18;2.85;;;26.30;58.70;;;;;;5111498;28;20031;-93
2022/05/11 12:01:09;;;;;;;11.32;2.85;;;26.30;55.30;;;;;;5108637;28;20020;-92
2022/05/11 12:04:11;;;;;;;5.13;2.83;;;26.40;57.90;;;;;;5112441;28;20058;-93
2022/05/11 12:15:23;;;;;;;9.43;3.00;;;26.70;50.60;;;;;;5105343;28;20030;-91
2022/05/11 12:17:48;;;;;;;7.70;2.88;;;26.60;50.30;;;;;;5094179;27;20107;-90
2022/05/11 12:20:18;;;;;;;3.85;2.70;;;26.60;53.60;;;;;;5111247;28;20466;-90
2022/05/11 12:23:31;;;;;;;18.15;3.03;;;26.70;49.60;;;;;;5113376;27;20016;-88
2022/05/11 12:26:00;;;;;;;14.95;3.97;;;26.70;48.50;;;;;;5105600;28;20135;-86
2022/05/11 12:28:31;;;;;;;5.65;2.63;;;26.60;50.20;;;;;;5094017;28;20077;-92
2022/05/11 12:31:07;;;;;;;8.93;3.00;;;26.60;49.90;;;;;;5093664;28;20032;-88
2022/05/11 12:33:35;;;;;;;5.85;2.95;;;26.70;51.80;;;;;;5092388;28;20034;-90
2022/05/11 12:36:02;;;;;;;6.72;2.88;;;26.70;50.20;;;;;;5109260;28;20034;-87
2022/05/11 12:38:34;;;;;;;16.50;3.10;;;26.50;49.70;;;;;;5102639;27;20020;-90
2022/05/11 12:41:21;;;;;;;13.68;2.88;;;26.20;50.60;;;;;;5102100;28;20115;-88
2022/05/11 12:43:59;;;;;;;7.80;2.90;;;26.20;50.30;;;;;;5106753;28;20043;-88
2022/05/11 12:46:26;;;;;;;5.85;2.95;;;26.30;49.30;;;;;;5100334;28;20052;-88
2022/05/11 12:48:59;;;;;;;10.90;2.90;;;26.30;52.00;;;;;;5111115;27;20031;-92
2022/05/11 12:52:00;;;;;;;5.15;2.75;;;26.40;50.40;;;;;;5116288;27;20032;-87
2022/05/11 12:55:01;;;;;;;6.53;2.75;;;26.50;50.70;;;;;;5120180;27;20047;-91
2022/05/11 12:57:39;;;;;;;4.53;2.33;;;26.50;48.60;;;;;;5114785;27;20066;-94
2022/05/11 13:00:16;;;;;;;4.30;2.50;;;26.60;47.90;;;;;;5120801;27;20026;-89
2022/05/11 13:02:44;;;;;;;8.52;2.75;;;26.70;48.00;;;;;;5077641;28;20039;-91
2022/05/11 13:05:14;;;;;;;11.07;2.88;;;26.70;46.50;;;;;;5115088;27;20471;-90
2022/05/11 13:08:00;;;;;;;7.93;3.00;;;26.70;48.80;;;;;;5112984;27;20483;-89
2022/05/11 13:10:38;;;;;;;11.25;2.80;;;26.80;49.40;;;;;;5096370;28;20036;-92
2022/05/11 13:13:47;;;;;;;6.85;2.65;;;26.90;47.70;;;;;;5107433;28;20027;-96
2022/05/11 13:19:39;;;;;;;8.25;2.83;;;27.00;47.60;;;;;;5102238;28;20514;-91
2022/05/11 13:22:14;;;;;;;9.93;2.58;;;27.10;47.00;;;;;;5119402;27;20035;-88
2022/05/11 13:24:45;;;;;;;5.03;3.10;;;27.20;47.10;;;;;;5100920;28;20051;-88
2022/05/11 13:27:32;;;;;;;6.53;2.67;;;27.30;45.30;;;;;;5107841;28;20020;-89
2022/05/11 13:30:42;;;;;;;7.55;3.17;;;27.30;45.20;;;;;;5092768;28;20450;-87
2022/05/11 13:33:33;;;;;;;5.10;2.42;;;27.30;46.00;;;;;;5094027;28;20024;-91
2022/05/11 13:36:07;;;;;;;5.55;2.85;;;27.30;47.60;;;;;;5113149;28;20107;-91
2022/05/11 13:38:52;;;;;;;3.83;2.92;;;27.30;46.90;;;;;;5111103;28;20475;-90
2022/05/11 13:41:23;;;;;;;7.57;2.30;;;27.40;45.60;;;;;;5105941;28;20023;-90
2022/05/11 13:44:14;;;;;;;9.15;2.80;;;27.50;45.70;;;;;;5111444;28;20032;-93
2022/05/11 13:49:30;;;;;;;11.68;2.80;;;27.50;44.60;;;;;;5093201;28;20027;-89
2022/05/11 13:52:01;;;;;;;7.68;3.00;;;27.50;45.00;;;;;;5108805;28;20032;-92
2022/05/11 13:54:36;;;;;;;8.40;2.72;;;27.40;45.60;;;;;;5092928;28;20119;-92
2022/05/11 13:57:07;;;;;;;6.78;2.75;;;27.30;45.40;;;;;;5108956;28;20070;-91
2022/05/11 13:59:47;;;;;;;6.40;2.60;;;27.30;45.40;;;;;;5093037;28;20103;-92
2022/05/11 14:02:14;;;;;;;8.52;2.40;;;27.30;47.20;;;;;;5110140;28;20026;-91
2022/05/11 14:04:42;;;;;;;7.10;2.70;;;27.20;46.00;;;;;;5111766;28;20145;-92
2022/05/11 14:07:08;;;;;;;9.77;2.60;;;27.40;45.90;;;;;;5104437;28;20015;-90
2022/05/11 14:09:36;;;;;;;7.78;2.75;;;27.60;45.10;;;;;;5112280;28;20369;-92
2022/05/11 14:12:26;;;;;;;4.88;2.67;;;27.40;45.30;;;;;;5112984;28;20032;-92
2022/05/11 14:14:52;;;;;;;8.20;2.83;;;27.40;45.60;;;;;;5111170;28;20026;-89
2022/05/11 14:17:25;;;;;;;6.93;2.72;;;27.50;45.10;;;;;;5107836;28;20433;-93
2022/05/11 14:19:56;;;;;;;5.80;2.70;;;27.40;44.60;;;;;;5109739;28;20016;-90
2022/05/11 14:22:22;;;;;;;2.70;2.42;;;27.30;44.30;;;;;;5111094;28;20487;-90